Time;durP1;ratioP1;P1;durP2;ratioP2;P2;SDS_P1;SDS_P2;PMS_P1;PMS_P2;Temp;Humidity;BMP_temperature;BMP_pressure;BME280_temperature;BME280_humidity;BME280_pressure;Samples;Min_cycle;Max_cycle;Signal;HPM_P1;HPM_P2
2023/08/12 00:00:38;;;;;;;2.37;2.17;;;20.00;91.60;;;20.45;55.73;95527.94;5093324;27;20458;-59
2023/08/12 00:03:05;;;;;;;2.60;2.40;;;20.00;91.50;;;20.42;55.81;95518.44;5098017;27;20567;-60
2023/08/12 00:05:35;;;;;;;1.93;1.83;;;20.00;91.50;;;20.41;55.87;95522.09;5097661;27;20466;-56
2023/08/12 00:08:02;;;;;;;2.80;2.60;;;19.90;91.40;;;20.39;55.63;95520.66;5096741;27;20523;-57
2023/08/12 00:10:30;;;;;;;2.60;2.40;;;19.90;91.30;;;20.37;55.65;95523.50;5099267;27;20469;-59
2023/08/12 00:12:57;;;;;;;3.50;2.00;;;19.90;91.30;;;20.35;55.74;95517.50;5099474;27;20482;-56
2023/08/12 00:15:26;;;;;;;2.30;2.10;;;19.90;91.20;;;20.33;55.83;95527.56;5101420;27;20465;-61
2023/08/12 00:17:53;;;;;;;2.97;2.20;;;19.90;91.10;;;20.29;55.57;95512.06;5098506;27;20634;-58
2023/08/12 00:20:21;;;;;;;2.50;2.30;;;19.90;91.00;;;20.26;55.36;95518.59;5099752;27;20453;-60
2023/08/12 00:22:48;;;;;;;5.87;2.37;;;19.80;91.00;;;20.25;55.90;95522.31;5095975;27;20497;-59
2023/08/12 00:25:16;;;;;;;6.40;2.67;;;19.80;91.00;;;20.24;55.52;95517.97;5093163;27;20965;-60
2023/08/12 00:27:44;;;;;;;2.50;2.40;;;19.80;91.00;;;20.22;55.43;95517.34;5096648;27;20899;-60
2023/08/12 00:30:12;;;;;;;2.40;2.30;;;19.80;91.00;;;20.23;55.63;95518.97;5093281;28;21229;-55
2023/08/12 00:32:40;;;;;;;2.27;2.17;;;19.80;91.00;;;20.24;55.20;95517.97;5099334;27;20531;-57
2023/08/12 00:35:08;;;;;;;2.50;2.07;;;19.80;91.00;;;20.23;55.21;95509.13;5094958;27;20611;-56
2023/08/12 00:37:36;;;;;;;3.00;2.47;;;19.80;91.00;;;20.24;55.76;95516.13;5096208;27;20470;-61
2023/08/12 00:40:03;;;;;;;2.90;2.53;;;19.80;90.90;;;20.27;55.48;95514.09;5101309;27;20454;-59
2023/08/12 00:42:31;;;;;;;2.43;2.30;;;19.80;90.80;;;20.26;55.26;95515.94;5085983;28;20547;-58
2023/08/12 00:44:58;;;;;;;2.17;2.07;;;19.80;90.70;;;20.26;55.14;95515.13;5094792;27;21007;-58
2023/08/12 00:47:26;;;;;;;2.20;2.10;;;19.80;90.60;;;20.24;55.25;95515.28;5096805;27;20516;-59
2023/08/12 00:49:57;;;;;;;2.13;1.90;;;19.80;90.60;;;20.22;55.05;95512.00;5097380;28;20565;-57
2023/08/12 00:52:24;;;;;;;2.33;2.13;;;19.80;90.60;;;20.20;54.91;95503.31;5099083;27;20472;-58
2023/08/12 00:54:51;;;;;;;4.93;2.13;;;19.80;90.60;;;20.19;55.03;95509.69;5099526;27;20582;-56
2023/08/12 00:57:18;;;;;;;4.30;2.40;;;19.80;90.50;;;20.16;55.15;95510.06;5095014;27;20869;-59
2023/08/12 00:59:45;;;;;;;3.10;1.93;;;19.70;90.50;;;20.15;55.14;95497.69;5098489;27;20493;-58
2023/08/12 01:02:13;;;;;;;2.30;2.10;;;19.70;90.50;;;20.14;55.06;95498.69;5093464;27;20498;-58
2023/08/12 01:04:40;;;;;;;2.90;2.00;;;19.70;90.50;;;20.12;55.11;95496.22;5092060;27;20489;-60
2023/08/12 01:07:09;;;;;;;1.97;1.87;;;19.70;90.50;;;20.11;55.04;95496.41;5092965;27;20552;-55
2023/08/12 01:09:36;;;;;;;2.80;2.27;;;19.70;90.50;;;20.08;55.02;95492.28;5095673;27;20466;-58
2023/08/12 01:12:07;;;;;;;1.93;1.83;;;19.70;90.50;;;20.09;55.17;95490.41;5088927;27;20458;-56
2023/08/12 01:14:39;;;;;;;2.63;2.33;;;19.60;90.50;;;20.02;55.23;95488.47;5090127;28;20472;-59
2023/08/12 01:17:08;;;;;;;2.43;2.17;;;19.60;90.40;;;19.97;55.20;95496.22;5089237;28;20519;-60
2023/08/12 01:19:36;;;;;;;2.70;2.50;;;19.60;90.50;;;19.93;55.46;95491.44;5092978;28;20476;-59
2023/08/12 01:22:04;;;;;;;4.33;2.20;;;19.50;90.50;;;19.88;55.45;95491.97;5087380;28;20500;-59
2023/08/12 01:24:37;;;;;;;3.10;2.90;;;19.50;91.00;;;19.82;55.92;95496.19;5091420;28;20476;-58
2023/08/12 01:27:04;;;;;;;2.43;2.23;;;19.40;90.80;;;19.77;55.66;95489.72;5088141;28;20524;-56
2023/08/12 01:29:32;;;;;;;9.60;2.37;;;19.40;90.80;;;19.71;55.57;95492.09;5094534;28;20520;-60
2023/08/12 01:32:09;;;;;;;4.00;1.77;;;19.30;90.70;;;19.67;55.64;95492.63;5094521;28;20458;-57
2023/08/12 01:34:43;;;;;;;3.23;1.93;;;19.30;90.70;;;19.63;55.56;95486.84;5086481;28;21040;-55
2023/08/12 01:37:12;;;;;;;2.47;2.30;;;19.20;90.70;;;19.61;55.45;95494.22;5086206;28;20454;-59
2023/08/12 01:39:41;;;;;;;5.70;2.07;;;19.20;90.90;;;19.58;55.77;95489.22;5093319;28;20952;-57
2023/08/12 01:42:08;;;;;;;2.40;2.20;;;19.20;90.90;;;19.53;55.96;95481.78;5087798;28;20493;-59
2023/08/12 01:44:35;;;;;;;6.00;2.33;;;19.10;91.00;;;19.49;56.44;95479.63;5087378;28;20484;-56
2023/08/12 01:47:02;;;;;;;2.40;2.30;;;19.10;91.00;;;19.46;56.24;95480.00;5085264;28;21027;-61
2023/08/12 01:49:30;;;;;;;2.03;1.93;;;19.10;91.20;;;19.44;56.24;95482.00;5093046;28;20497;-57
2023/08/12 01:51:57;;;;;;;2.40;2.20;;;19.00;91.20;;;19.40;56.39;95480.72;5092524;28;20545;-58
2023/08/12 01:54:24;;;;;;;2.93;2.73;;;19.00;91.30;;;19.37;56.50;95489.09;5092486;28;20469;-57
2023/08/12 01:56:53;;;;;;;3.67;2.23;;;19.00;91.30;;;19.33;56.06;95489.44;5090851;28;20461;-61
2023/08/12 01:59:20;;;;;;;3.23;2.50;;;19.00;91.30;;;19.32;56.14;95500.28;5089973;28;20465;-57
2023/08/12 02:01:47;;;;;;;1.73;1.63;;;18.90;91.30;;;19.29;56.29;95490.78;5090282;28;20499;-58
2023/08/12 02:04:14;;;;;;;3.17;2.60;;;18.90;91.40;;;19.27;56.41;95499.97;5089439;28;20561;-59
2023/08/12 02:06:42;;;;;;;4.27;2.67;;;18.90;91.50;;;19.25;56.28;95500.16;5095615;28;21052;-59
2023/08/12 02:09:09;;;;;;;2.80;2.30;;;18.80;91.40;;;19.23;56.30;95496.03;5088772;28;20490;-59
2023/08/12 02:11:36;;;;;;;2.33;2.17;;;18.80;91.40;;;19.22;56.41;95494.34;5089281;28;20458;-59
2023/08/12 02:14:05;;;;;;;6.40;2.50;;;18.80;91.50;;;19.19;56.64;95498.19;5088929;28;20703;-60
2023/08/12 02:16:33;;;;;;;3.00;2.70;;;18.80;91.50;;;19.16;56.64;95491.41;5087898;28;20461;-56
2023/08/12 02:19:00;;;;;;;2.67;2.47;;;18.80;91.60;;;19.15;56.70;95483.56;5090985;28;20465;-58
2023/08/12 02:21:27;;;;;;;2.30;2.20;;;18.80;91.60;;;19.13;56.43;95486.41;5087348;28;20546;-60
2023/08/12 02:23:54;;;;;;;5.13;2.47;;;18.70;91.60;;;19.12;56.74;95481.25;5091994;28;20499;-60
2023/08/12 02:26:22;;;;;;;3.10;2.50;;;18.70;91.60;;;19.11;56.92;95483.06;5093213;28;20461;-60
2023/08/12 02:28:49;;;;;;;4.70;2.27;;;18.70;91.60;;;19.11;56.75;95490.25;5092853;28;20556;-56
2023/08/12 02:31:18;;;;;;;2.03;1.93;;;18.70;91.60;;;19.10;56.42;95491.25;5091530;28;20458;-60
2023/08/12 02:33:45;;;;;;;2.43;2.23;;;18.70;91.70;;;19.10;56.51;95485.94;5087186;28;20481;-60
2023/08/12 02:36:12;;;;;;;6.30;2.07;;;18.70;91.70;;;19.10;56.36;95484.09;5090532;28;20442;-60
2023/08/12 02:38:39;;;;;;;2.50;2.40;;;18.70;91.80;;;19.09;56.78;95487.78;5092150;28;20493;-57
2023/08/12 02:41:07;;;;;;;2.17;1.97;;;18.70;91.80;;;19.08;56.63;95496.75;5090150;28;20994;-56
2023/08/12 02:43:34;;;;;;;2.00;1.80;;;18.70;91.70;;;19.06;56.77;95490.78;5086433;28;21818;-60
2023/08/12 02:46:02;;;;;;;4.50;2.60;;;18.70;91.70;;;19.06;56.31;95495.31;5088810;28;20454;-58
2023/08/12 02:48:30;;;;;;;2.17;1.97;;;18.70;91.70;;;19.04;57.00;95490.16;5084113;28;20478;-57
2023/08/12 02:50:58;;;;;;;2.07;1.97;;;18.60;91.70;;;19.03;56.41;95501.81;5093081;28;20537;-59
2023/08/12 02:53:25;;;;;;;3.30;2.80;;;18.60;91.80;;;19.02;56.35;95499.31;5092776;28;20476;-59
2023/08/12 02:55:52;;;;;;;4.90;2.67;;;18.60;91.80;;;19.00;56.95;95488.84;5087592;28;20485;-59
2023/08/12 02:58:19;;;;;;;2.30;2.20;;;18.60;91.80;;;18.98;56.32;95494.34;5088989;28;20486;-56
2023/08/12 03:00:47;;;;;;;1.73;1.63;;;18.60;91.80;;;18.98;56.42;95493.53;5094382;28;20450;-55
2023/08/12 03:03:14;;;;;;;3.30;2.20;;;18.60;91.80;;;18.96;56.92;95504.38;5088625;28;20500;-59
2023/08/12 03:05:46;;;;;;;3.70;2.33;;;18.60;91.80;;;18.95;56.57;95508.03;5096294;28;20905;-60
2023/08/12 03:08:13;;;;;;;2.37;2.27;;;18.60;91.80;;;18.94;57.11;95509.03;5088204;28;20485;-59
2023/08/12 03:10:41;;;;;;;2.60;2.37;;;18.50;91.80;;;18.89;56.43;95503.41;5096838;28;20444;-59
2023/08/12 03:13:08;;;;;;;4.33;2.33;;;18.50;91.80;;;18.89;56.91;95506.06;5094350;27;20491;-59
2023/08/12 03:15:35;;;;;;;2.80;2.60;;;18.50;91.80;;;18.86;56.70;95511.75;5095225;28;20821;-59
2023/08/12 03:18:03;;;;;;;6.43;2.27;;;18.50;91.90;;;18.86;57.11;95511.75;5091488;28;20478;-59
2023/08/12 03:20:30;;;;;;;2.00;1.80;;;18.50;91.80;;;18.85;56.57;95514.59;5090343;28;20453;-58
2023/08/12 03:23:00;;;;;;;2.20;2.10;;;18.50;92.00;;;18.81;57.36;95512.25;5092855;28;20557;-61
2023/08/12 03:25:27;;;;;;;6.00;2.77;;;18.40;92.00;;;18.80;57.13;95509.75;5092043;28;20468;-59
2023/08/12 03:27:54;;;;;;;2.00;1.90;;;18.40;92.40;;;18.78;57.13;95514.44;5093109;28;20489;-60
2023/08/12 03:30:22;;;;;;;8.60;2.00;;;18.40;92.10;;;18.76;56.94;95511.94;5095541;28;20507;-60
2023/08/12 03:32:49;;;;;;;7.43;3.00;;;18.40;92.20;;;18.75;57.56;95514.78;5092971;28;21450;-60
2023/08/12 03:35:16;;;;;;;2.20;2.10;;;18.30;92.20;;;18.74;56.93;95518.44;5097810;28;20465;-59
2023/08/12 03:37:43;;;;;;;2.40;2.30;;;18.30;92.30;;;18.72;57.61;95518.63;5091166;28;20833;-57
2023/08/12 03:40:13;;;;;;;2.70;2.07;;;18.30;92.40;;;18.70;57.77;95517.97;5094129;28;20510;-58
2023/08/12 03:42:40;;;;;;;5.50;2.30;;;18.30;92.40;;;18.69;57.67;95518.97;5090798;28;20473;-57
2023/08/12 03:45:09;;;;;;;2.30;2.20;;;18.30;92.40;;;18.68;57.00;95519.13;5097544;28;20463;-57
2023/08/12 03:47:36;;;;;;;10.20;2.67;;;18.30;92.40;;;18.68;57.70;95524.47;5090547;28;20473;-59
2023/08/12 03:50:03;;;;;;;3.27;3.00;;;18.30;92.40;;;18.67;57.75;95518.31;5091483;28;20535;-60
2023/08/12 03:52:31;;;;;;;4.43;2.63;;;18.30;92.40;;;18.67;57.56;95520.97;5092593;28;20458;-59
2023/08/12 03:54:58;;;;;;;5.63;2.43;;;18.30;92.40;;;18.66;57.72;95516.66;5093793;28;20464;-60
2023/08/12 03:57:27;;;;;;;2.70;2.50;;;18.30;92.40;;;18.67;57.64;95522.78;5093163;28;20453;-60
2023/08/12 03:59:54;;;;;;;2.40;2.20;;;18.30;92.50;;;18.66;57.36;95521.97;5094354;28;20456;-59
2023/08/12 04:02:21;;;;;;;2.70;2.50;;;18.30;92.50;;;18.67;57.74;95512.13;5089624;28;20835;-58
2023/08/12 04:04:49;;;;;;;3.50;2.50;;;18.30;92.50;;;18.67;57.58;95520.13;5089250;28;20494;-59
2023/08/12 04:07:16;;;;;;;3.30;2.63;;;18.30;92.60;;;18.66;57.51;95519.31;5091482;28;20458;-57
2023/08/12 04:09:43;;;;;;;5.37;2.83;;;18.30;92.60;;;18.68;57.75;95519.97;5097879;28;20457;-58
2023/08/12 04:12:10;;;;;;;4.40;2.27;;;18.30;92.60;;;18.68;57.74;95513.81;5090662;28;20519;-61
2023/08/12 04:14:40;;;;;;;2.40;2.20;;;18.30;92.60;;;18.68;57.81;95519.97;5090136;28;20474;-56
2023/08/12 04:17:08;;;;;;;6.13;2.90;;;18.30;92.60;;;18.70;57.58;95527.78;5098168;28;20510;-59
2023/08/12 04:19:35;;;;;;;4.60;2.50;;;18.30;92.70;;;18.71;57.86;95524.94;5092387;28;20615;-59
2023/08/12 04:22:02;;;;;;;2.70;2.50;;;18.30;92.80;;;18.74;57.25;95529.91;5090767;28;20485;-58
2023/08/12 04:24:29;;;;;;;8.43;3.23;;;18.30;92.80;;;18.77;57.27;95536.75;5090153;28;20570;-58
2023/08/12 04:26:57;;;;;;;8.10;3.20;;;18.40;92.90;;;18.80;57.38;95534.56;5092474;28;20461;-59
2023/08/12 04:29:24;;;;;;;4.00;2.83;;;18.40;92.90;;;18.82;57.87;95537.03;5089964;28;20482;-58
2023/08/12 04:31:53;;;;;;;10.37;3.83;;;18.40;93.00;;;18.84;57.84;95537.72;5090383;28;20519;-58
2023/08/12 04:34:20;;;;;;;5.80;3.60;;;18.50;92.90;;;18.85;57.59;95535.91;5092640;28;20553;-61
2023/08/12 04:36:48;;;;;;;5.57;4.30;;;18.50;93.10;;;18.86;58.01;95535.72;5095532;28;20460;-60
2023/08/12 04:39:15;;;;;;;3.50;3.30;;;18.50;93.10;;;18.86;57.84;95541.06;5095465;28;20473;-58
2023/08/12 04:41:42;;;;;;;4.97;3.23;;;18.50;93.10;;;18.86;57.50;95533.06;5093633;28;20512;-57
2023/08/12 04:44:10;;;;;;;9.50;3.33;;;18.50;93.10;;;18.86;57.39;95543.72;5091225;28;20613;-60
2023/08/12 04:46:37;;;;;;;4.37;3.50;;;18.50;93.10;;;18.88;58.13;95541.72;5096427;28;20455;-57
2023/08/12 04:49:06;;;;;;;4.07;3.60;;;18.50;93.10;;;18.89;57.48;95535.38;5093007;28;20539;-60
2023/08/12 04:51:33;;;;;;;3.97;3.20;;;18.50;93.10;;;18.89;57.38;95532.72;5099153;28;20458;-59
2023/08/12 04:54:01;;;;;;;11.43;4.13;;;18.50;93.10;;;18.89;58.11;95543.38;5090324;28;20564;-60
2023/08/12 04:56:29;;;;;;;10.80;4.00;;;18.50;93.10;;;18.88;57.99;95544.38;5093334;28;20454;-57
2023/08/12 04:58:57;;;;;;;9.60;4.00;;;18.50;93.20;;;18.88;58.16;95543.56;5093405;28;20557;-58
2023/08/12 05:01:24;;;;;;;5.80;4.50;;;18.50;93.10;;;18.89;58.51;95538.03;5091740;28;20981;-60
2023/08/12 05:03:51;;;;;;;8.10;3.80;;;18.50;93.40;;;18.89;58.71;95542.56;5088487;28;20524;-58
2023/08/12 05:06:20;;;;;;;6.83;3.07;;;18.50;93.60;;;18.89;58.69;95540.72;5093602;28;20461;-59
2023/08/12 05:08:47;;;;;;;7.07;4.13;;;18.50;93.70;;;18.90;58.79;95542.38;5094407;28;20466;-60
2023/08/12 05:11:14;;;;;;;5.37;3.40;;;18.50;93.80;;;18.93;58.99;95539.38;5091957;28;20484;-58
2023/08/12 05:13:42;;;;;;;6.10;3.67;;;18.50;94.10;;;19.00;58.87;95539.50;5086921;28;20476;-58
2023/08/12 05:16:09;;;;;;;7.77;3.90;;;18.60;94.00;;;19.06;58.12;95540.63;5090944;28;20462;-60
2023/08/12 05:18:36;;;;;;;4.03;3.30;;;18.70;94.10;;;19.13;58.35;95541.56;5091923;28;20474;-60
2023/08/12 05:21:03;;;;;;;3.73;3.43;;;18.70;94.10;;;19.17;58.64;95543.72;5087050;28;20446;-58
2023/08/12 05:23:32;;;;;;;5.13;3.33;;;18.70;94.10;;;19.25;58.59;95552.66;5092528;28;20808;-60
2023/08/12 05:25:59;;;;;;;4.30;3.90;;;18.80;94.10;;;19.30;58.33;95555.63;5092948;28;20458;-57
2023/08/12 05:28:27;;;;;;;5.20;4.53;;;18.80;94.10;;;19.36;58.09;95552.25;5090849;28;20493;-58
2023/08/12 05:30:54;;;;;;;3.60;3.40;;;18.90;94.10;;;19.45;58.49;95553.03;5092821;28;20449;-58
2023/08/12 05:33:22;;;;;;;9.63;4.47;;;19.00;94.20;;;19.56;58.32;95552.59;5089022;28;20482;-59
2023/08/12 05:35:49;;;;;;;3.93;3.50;;;19.10;94.10;;;19.67;58.10;95552.19;5096536;28;20445;-57
2023/08/12 05:38:16;;;;;;;7.97;4.00;;;19.20;94.10;;;19.82;58.43;95549.59;5088676;28;21009;-60
2023/08/12 05:40:45;;;;;;;5.23;3.00;;;19.30;94.20;;;19.98;57.85;95551.28;5090375;28;20454;-58
2023/08/12 05:43:15;;;;;;;6.50;3.40;;;19.50;93.90;;;20.16;57.61;95556.28;5089083;28;20473;-57
2023/08/12 05:45:42;;;;;;;9.00;3.97;;;19.70;93.80;;;20.34;57.42;95558.59;5091708;28;20461;-56
2023/08/12 05:48:09;;;;;;;3.73;3.53;;;19.80;93.70;;;20.53;56.99;95551.06;5092139;28;20465;-57
2023/08/12 05:50:37;;;;;;;3.97;3.23;;;20.00;93.50;;;20.71;56.60;95558.69;5092542;28;20901;-61
2023/08/12 05:53:04;;;;;;;3.03;2.83;;;20.20;93.20;;;20.87;56.30;95549.66;5092045;28;20481;-58
2023/08/12 05:55:34;;;;;;;9.20;3.80;;;20.30;92.90;;;21.04;56.11;95548.44;5087888;28;20965;-60
2023/08/12 05:58:03;;;;;;;3.83;3.00;;;20.50;92.70;;;21.21;55.82;95554.38;5093705;28;20466;-56
2023/08/12 06:00:30;;;;;;;5.93;3.17;;;20.60;92.40;;;21.32;55.67;95545.03;5086626;28;21099;-61
2023/08/12 06:02:57;;;;;;;15.63;3.50;;;20.70;92.10;;;21.39;55.30;95537.88;5091822;28;20481;-57
2023/08/12 06:05:25;;;;;;;3.20;2.83;;;20.80;91.80;;;21.47;54.92;95543.13;5093458;28;20489;-61
2023/08/12 06:07:52;;;;;;;7.60;3.07;;;20.90;91.50;;;21.50;54.59;95539.25;5091017;28;20477;-57
2023/08/12 06:10:19;;;;;;;7.13;3.23;;;20.90;91.20;;;21.55;54.24;95539.50;5093383;28;20498;-57
2023/08/12 06:12:46;;;;;;;3.13;2.93;;;21.00;91.10;;;21.66;54.29;95535.50;5085570;28;20457;-60
2023/08/12 06:15:15;;;;;;;6.10;3.17;;;21.10;91.00;;;21.82;54.55;95537.06;5094649;27;20467;-61
2023/08/12 06:17:42;;;;;;;6.23;2.87;;;21.20;90.90;;;22.05;54.14;95536.81;5093712;28;20497;-56
2023/08/12 06:20:11;;;;;;;2.90;2.60;;;21.40;90.80;;;22.28;53.26;95541.94;5089261;28;20446;-57
2023/08/12 06:22:38;;;;;;;3.30;3.00;;;21.60;90.90;;;22.47;53.50;95539.59;5090423;28;20469;-58
2023/08/12 06:25:06;;;;;;;2.53;2.33;;;21.80;90.30;;;22.64;53.38;95542.78;5093367;28;20698;-61
2023/08/12 06:27:34;;;;;;;7.97;3.07;;;22.00;90.00;;;22.79;52.96;95531.91;5077481;28;22572;-63
2023/08/12 06:30:01;;;;;;;5.97;3.30;;;22.10;89.40;;;22.91;52.42;95528.47;5100797;28;20499;-60
2023/08/12 06:32:30;;;;;;;3.70;2.70;;;22.30;88.60;;;22.98;52.05;95527.66;5078087;28;20506;-61
2023/08/12 06:34:57;;;;;;;5.90;2.80;;;22.30;88.60;;;23.02;52.04;95528.91;5096116;28;20473;-59
2023/08/12 06:37:24;;;;;;;4.50;2.10;;;22.40;87.80;;;23.09;51.68;95521.75;5093998;28;20978;-63
2023/08/12 06:39:51;;;;;;;4.47;2.93;;;22.40;87.60;;;23.21;51.77;95524.69;5094301;27;20581;-61
2023/08/12 06:42:19;;;;;;;2.90;2.70;;;22.60;87.30;;;23.35;52.12;95515.63;5097987;27;20477;-56
2023/08/12 06:44:46;;;;;;;3.20;2.90;;;22.70;86.90;;;23.49;51.52;95511.09;5096927;27;20541;-57
2023/08/12 06:47:14;;;;;;;6.13;2.53;;;22.80;86.00;;;23.55;51.06;95512.97;5097302;28;20477;-63
2023/08/12 06:49:42;;;;;;;3.20;2.90;;;22.90;85.00;;;23.54;50.17;95519.34;5093631;27;20464;-62
2023/08/12 06:52:09;;;;;;;4.70;3.03;;;22.90;84.10;;;23.51;50.31;95511.69;5092822;28;20553;-57
2023/08/12 06:54:37;;;;;;;10.40;3.30;;;22.90;84.00;;;23.61;51.13;95511.31;5095450;28;20505;-62
2023/08/12 06:57:04;;;;;;;3.83;3.00;;;22.90;84.10;;;23.80;51.00;95515.84;5101706;28;20456;-57
2023/08/12 06:59:31;;;;;;;3.13;2.90;;;23.10;84.70;;;24.06;50.93;95514.22;5090601;27;20474;-58
2023/08/12 07:01:59;;;;;;;7.27;3.10;;;23.30;84.60;;;24.28;49.87;95517.50;5094421;28;20477;-58
2023/08/12 07:04:26;;;;;;;5.43;2.70;;;23.60;83.60;;;24.46;49.79;95508.78;5085760;28;21066;-56
2023/08/12 07:06:55;;;;;;;4.57;2.40;;;23.80;83.60;;;24.66;50.00;95508.75;5091832;28;20485;-60
2023/08/12 07:09:22;;;;;;;3.30;2.70;;;23.90;82.60;;;24.76;49.13;95505.59;5093664;27;20472;-58
2023/08/12 07:11:49;;;;;;;2.93;2.30;;;24.10;80.90;;;24.86;48.34;95507.84;5100291;28;20865;-55
2023/08/12 07:14:16;;;;;;;4.13;3.10;;;24.20;80.30;;;25.06;48.38;95508.56;5096271;28;20468;-60
2023/08/12 07:16:44;;;;;;;7.53;2.43;;;24.40;80.30;;;25.28;48.31;95505.53;5100966;28;20453;-62
2023/08/12 07:19:11;;;;;;;5.80;2.43;;;24.60;79.80;;;25.46;47.95;95507.53;5101007;27;20468;-57
2023/08/12 07:21:38;;;;;;;6.70;2.97;;;24.80;79.30;;;25.68;48.02;95508.00;5093489;28;20566;-60
2023/08/12 07:24:08;;;;;;;2.67;2.47;;;25.00;78.60;;;25.90;47.36;95504.91;5095627;28;20488;-57
2023/08/12 07:26:35;;;;;;;4.63;2.80;;;25.20;78.30;;;26.09;46.39;95506.66;5095880;28;20472;-60
2023/08/12 07:29:02;;;;;;;3.40;2.67;;;25.40;77.20;;;26.33;46.24;95514.94;5100962;28;20468;-61
2023/08/12 07:31:30;;;;;;;4.43;2.30;;;25.60;75.00;;;26.60;45.47;95506.53;5097506;28;20522;-55
2023/08/12 07:33:57;;;;;;;3.67;2.53;;;25.80;74.00;;;26.84;44.89;95508.38;5099376;28;20476;-57
2023/08/12 07:36:24;;;;;;;3.73;2.77;;;26.10;72.80;;;27.07;44.51;95506.03;5098522;28;20460;-55
2023/08/12 07:38:51;;;;;;;4.17;2.63;;;26.30;72.00;;;27.30;44.12;95505.31;5093922;27;20479;-59
2023/08/12 07:41:20;;;;;;;7.70;2.70;;;26.60;71.20;;;27.51;43.37;95502.13;5094610;28;20985;-57
2023/08/12 07:43:48;;;;;;;2.77;2.50;;;26.80;70.10;;;27.72;43.57;95492.63;5098106;27;20475;-56
2023/08/12 07:46:15;;;;;;;6.40;2.70;;;27.00;69.60;;;27.86;42.09;95495.13;5098888;28;20456;-61
2023/08/12 07:48:42;;;;;;;5.13;1.97;;;27.20;67.60;;;28.02;42.55;95496.34;5092199;28;20868;-56
2023/08/12 07:51:09;;;;;;;2.70;2.50;;;27.30;67.10;;;28.19;42.60;95491.88;5093925;28;20481;-56
2023/08/12 07:53:36;;;;;;;4.90;2.60;;;27.50;67.20;;;28.39;41.97;95490.69;5094228;28;20570;-60
2023/08/12 07:56:04;;;;;;;7.00;2.30;;;27.70;66.40;;;28.61;41.15;95488.22;5099927;27;20857;-56
2023/08/12 07:58:33;;;;;;;22.20;3.13;;;27.90;65.80;;;28.84;40.87;95487.34;5099267;28;20813;-58
2023/08/12 08:01:00;;;;;;;3.87;2.53;;;28.10;64.30;;;29.05;40.49;95493.16;5092930;28;20456;-57
2023/08/12 08:03:27;;;;;;;6.10;2.40;;;28.30;63.00;;;29.15;39.27;95477.13;5099810;28;20219;-61
2023/08/12 08:05:56;;;;;;;4.10;3.00;;;28.50;61.80;;;29.21;39.11;95480.78;5098461;27;20934;-56
2023/08/12 08:08:23;;;;;;;2.90;2.70;;;28.50;61.40;;;29.29;39.24;95483.09;5097343;27;20504;-57
2023/08/12 08:10:50;;;;;;;2.70;2.10;;;28.60;60.40;;;29.30;37.81;95482.84;5093473;28;20251;-56
2023/08/12 08:13:17;;;;;;;2.40;2.23;;;28.70;59.50;;;29.28;38.74;95482.28;5093174;28;20211;-57
2023/08/12 08:15:46;;;;;;;5.37;2.70;;;28.60;59.80;;;29.39;38.46;95477.88;5096761;28;20475;-56
2023/08/12 08:18:14;;;;;;;3.07;2.50;;;28.70;59.50;;;29.59;38.84;95471.97;5095639;27;20215;-61
2023/08/12 08:20:43;;;;;;;5.13;2.70;;;28.90;59.70;;;29.81;37.56;95472.09;5097883;27;20219;-62
2023/08/12 08:23:11;;;;;;;2.20;2.10;;;29.10;59.40;;;29.98;38.43;95469.38;5093693;28;20231;-62
2023/08/12 08:25:38;;;;;;;5.03;2.63;;;29.20;58.90;;;30.16;38.29;95472.91;5095772;28;20249;-58
2023/08/12 08:28:05;;;;;;;5.10;3.00;;;29.40;59.10;;;30.42;37.43;95479.53;5094083;28;20231;-57
2023/08/12 08:30:33;;;;;;;4.03;2.33;;;29.60;59.00;;;30.64;37.38;95482.28;5100318;27;20279;-57
2023/08/12 08:33:01;;;;;;;4.03;2.73;;;29.90;58.20;;;30.74;36.79;95476.16;5093827;28;20287;-62
2023/08/12 08:35:29;;;;;;;2.20;2.00;;;30.00;57.30;;;30.86;36.91;95473.31;5101482;27;20203;-56
2023/08/12 08:37:56;;;;;;;4.60;2.20;;;30.10;57.50;;;31.04;36.78;95462.16;5089553;28;20222;-58
2023/08/12 08:40:23;;;;;;;3.20;2.57;;;30.30;57.40;;;31.15;35.61;95460.34;5093133;28;20314;-56
2023/08/12 08:42:53;;;;;;;2.93;2.27;;;30.50;55.60;;;31.07;35.04;95466.25;5093680;28;20218;-57
2023/08/12 08:45:21;;;;;;;7.33;2.50;;;30.40;54.80;;;30.93;35.36;95460.38;5094975;27;20229;-56
2023/08/12 08:47:49;;;;;;;2.50;2.30;;;30.30;55.20;;;30.83;36.15;95463.78;5098600;28;20299;-64
2023/08/12 08:50:17;;;;;;;2.20;2.10;;;30.20;55.30;;;30.83;35.37;95457.53;5095956;28;20227;-58
2023/08/12 08:52:45;;;;;;;2.87;2.40;;;30.20;55.00;;;30.88;35.50;95455.69;5098958;28;20214;-57
2023/08/12 08:55:12;;;;;;;2.70;2.50;;;30.20;55.60;;;31.04;35.85;95456.72;5094916;27;20217;-61
2023/08/12 08:57:40;;;;;;;5.72;2.72;;;30.30;55.50;;;31.24;35.52;95463.44;5092918;28;20223;-58
2023/08/12 09:00:10;;;;;;;3.80;2.50;;;30.50;56.00;;;31.43;35.66;95451.16;5090391;28;20207;-60
2023/08/12 09:02:38;;;;;;;2.88;2.63;;;30.70;55.30;;;31.62;35.11;95453.50;5090359;28;20230;-58
2023/08/12 09:05:07;;;;;;;5.53;2.55;;;30.80;54.40;;;31.82;34.53;95444.69;5088083;28;20276;-58
2023/08/12 09:07:35;;;;;;;4.55;2.35;;;31.00;53.50;;;31.99;34.37;95452.69;5092096;28;20849;-60
2023/08/12 09:10:03;;;;;;;3.47;3.05;;;31.20;53.60;;;32.12;34.40;95443.31;5091714;28;20207;-60
2023/08/12 09:12:31;;;;;;;3.85;2.33;;;31.40;53.60;;;32.21;34.13;95446.34;5094035;28;20227;-59
2023/08/12 09:14:58;;;;;;;2.70;2.50;;;31.50;52.90;;;32.30;33.26;95442.03;5090673;28;20686;-60
2023/08/12 09:17:26;;;;;;;5.40;2.15;;;31.50;52.30;;;32.39;33.38;95437.75;5093897;28;20195;-62
2023/08/12 09:19:53;;;;;;;2.33;2.05;;;31.70;51.60;;;32.47;33.20;95433.69;5089643;28;20207;-56
2023/08/12 09:22:20;;;;;;;3.05;2.28;;;31.80;51.90;;;32.53;32.81;95435.34;5090364;28;20902;-59
2023/08/12 09:24:51;;;;;;;5.45;2.53;;;31.80;51.10;;;32.58;33.01;95429.97;5085784;28;20270;-58
2023/08/12 09:27:19;;;;;;;2.55;2.33;;;31.90;52.00;;;32.46;32.90;95426.63;5089813;28;20199;-59
2023/08/12 09:29:47;;;;;;;2.13;2.03;;;31.90;50.90;;;32.22;32.49;95418.06;5093345;28;21024;-57
2023/08/12 09:32:15;;;;;;;4.90;2.75;;;31.60;49.90;;;32.08;33.14;95417.66;5091708;28;20246;-57
2023/08/12 09:34:48;;;;;;;2.88;2.70;;;31.50;50.90;;;31.89;32.62;95422.72;5097436;28;20200;-57
2023/08/12 09:37:15;;;;;;;3.35;2.83;;;31.30;50.40;;;31.75;33.32;95416.91;5085208;28;20291;-59
2023/08/12 09:39:43;;;;;;;5.05;3.83;;;31.10;51.40;;;31.66;33.31;95410.31;5085797;28;20199;-60
2023/08/12 09:42:12;;;;;;;3.97;2.65;;;31.10;51.00;;;31.64;33.37;95410.56;5090216;28;20293;-59
2023/08/12 09:44:39;;;;;;;3.30;2.17;;;31.00;51.40;;;31.74;33.57;95407.91;5088932;28;20235;-59
2023/08/12 09:47:08;;;;;;;1.83;1.73;;;31.00;51.40;;;31.80;32.57;95411.50;5094287;28;20557;-56
2023/08/12 09:49:35;;;;;;;4.05;2.25;;;31.10;50.40;;;31.75;32.22;95406.84;5089117;28;20251;-57
2023/08/12 09:52:03;;;;;;;2.50;2.40;;;31.00;50.00;;;31.72;32.62;95401.91;5096739;28;20277;-57
2023/08/12 09:54:32;;;;;;;2.88;2.17;;;31.00;50.00;;;31.73;32.93;95400.84;5086025;28;20216;-59
2023/08/12 09:57:01;;;;;;;4.70;2.03;;;31.00;50.80;;;31.81;33.16;95397.63;5093776;28;20234;-63
2023/08/12 09:59:32;;;;;;;4.68;1.80;;;31.10;50.50;;;31.88;32.96;95391.94;5086978;28;20220;-59
2023/08/12 10:01:59;;;;;;;2.80;2.60;;;31.20;50.80;;;31.97;32.86;95392.28;5090377;28;20199;-61
2023/08/12 10:04:30;;;;;;;4.20;2.05;;;31.30;50.70;;;32.04;32.28;95394.78;5093149;28;20292;-57
2023/08/12 10:06:57;;;;;;;10.13;2.65;;;31.30;50.00;;;32.07;32.81;95384.19;5090549;28;20678;-57
2023/08/12 10:09:24;;;;;;;3.58;2.10;;;31.40;50.20;;;32.07;32.56;95381.47;5090629;28;20235;-57
2023/08/12 10:11:53;;;;;;;2.13;2.03;;;31.40;49.60;;;31.98;32.25;95383.06;5093916;28;20199;-57
2023/08/12 10:14:20;;;;;;;3.30;1.70;;;31.30;49.50;;;31.83;32.25;95382.94;5087318;28;20246;-56
2023/08/12 10:16:49;;;;;;;2.67;2.47;;;31.20;49.40;;;31.71;32.40;95380.41;5092925;28;20210;-57
2023/08/12 10:19:17;;;;;;;2.33;2.22;;;31.10;49.50;;;31.56;32.22;95378.41;5085049;28;20579;-59
2023/08/12 10:21:45;;;;;;;4.22;2.33;;;30.90;49.00;;;31.36;32.11;95373.59;5088437;28;20260;-59